Latest Coastal Weather Observations for Parndana

IDS60701

Issued at 4:51 am CST Monday 27 April 2015 (issued every 10 minutes, with the page automatically refreshed every 10 minutes)

About coastal observations | Map of coastal stations | Coastal observations for SA | Marine services | Other Formats
Station Details ID: 022843 Name: PARNDANA CFS AWS Lat: -35.79 Lon: 137.25 Height: 165.0 m
Data from the previous 72 hours. | See also: Recent months at Parndana
Date/Time
CST
Temp

°C
Wind Pressure Rain
since 9am
mm
Weather Cloud Vis
km
Sea
Height
m
Swell
Dir
 
Speed
knots
Gust
knots
hPa Trend Height
m
Period
s
Dir
27/04:30am 10.1 W 5 7 - - 0.0 - - - - - - -
27/04:00am 10.4 W 4 5 - - 0.0 - - - - - - -
27/03:30am 10.4 W 5 6 - - 0.0 - - - - - - -
27/03:00am 10.3 W 5 6 - - 0.0 - - - - - - -
27/02:30am 10.3 W 5 6 - - 0.0 - - - - - - -
27/02:00am 10.2 W 5 6 - - 0.0 - - - - - - -
27/01:30am 10.0 WNW 4 5 - - 0.0 - - - - - - -
27/01:00am 9.9 W 4 4 - - 0.0 - - - - - - -
27/12:30am 10.8 SW 1 3 - - 0.0 - - - - - - -
27/12:00am 11.0 SW 2 3 - - 0.0 - - - - - - -
 
Date/Time
CST
Temp

°C
Wind Pressure Rain
since 9am
mm
Weather Cloud Vis
km
Sea
Height
m
Swell
Dir
 
Speed
knots
Gust
knots
hPa Trend Height
m
Period
s
Dir
26/11:30pm 11.2 SW 4 6 - - 0.0 - - - - - - -
26/11:00pm 11.1 SW 4 5 - - 0.0 - - - - - - -
26/10:30pm 11.4 SW 5 6 - - 0.0 - - - - - - -
26/10:00pm 11.0 WSW 3 4 - - 0.0 - - - - - - -
26/09:30pm 11.0 WSW 4 5 - - 0.0 - - - - - - -
26/09:00pm 11.3 SSW 4 7 - - 0.0 - - - - - - -
26/08:30pm 11.4 WSW 3 5 - - 0.0 - - - - - - -
26/08:00pm 11.6 WSW 6 8 - - 0.0 - - - - - - -
26/07:30pm 11.8 SW 3 4 - - 0.0 - - - - - - -
26/07:00pm 12.0 WSW 5 6 - - 0.0 - - - - - - -
26/06:30pm 12.1 SSW 3 4 - - 0.0 - - - - - - -
26/06:00pm 12.3 SSW 4 5 - - 0.0 - - - - - - -
26/05:30pm 12.6 SSW 6 8 - - 0.0 - - - - - - -
26/05:00pm 12.9 SSW 7 9 - - 0.0 - - - - - - -
26/04:30pm 13.1 SSW 8 10 - - 0.0 - - - - - - -
26/04:00pm 13.3 SSW 9 13 - - 0.0 - - - - - - -
26/03:30pm 13.5 S 8 11 - - 0.0 - - - - - - -
26/03:00pm 13.1 S 11 17 - - 0.0 - - - - - - -
26/02:30pm 13.5 SSW 10 13 - - 0.0 - - - - - - -
26/02:00pm 13.7 SSW 8 10 - - 0.0 - - - - - - -
26/01:30pm 13.5 SSW 6 9 - - 0.0 - - - - - - -
26/01:00pm 12.7 SSW 11 15 - - 0.0 - - - - - - -
26/12:30pm 13.2 SSW 10 14 - - 0.0 - - - - - - -
26/12:00pm 12.8 SSW 9 13 - - 0.0 - - - - - - -
26/11:30am 12.9 SSW 11 16 - - 0.0 - - - - - - -
26/11:00am 13.7 SSW 11 13 - - 0.0 - - - - - - -
26/10:30am 13.3 SSW 8 11 - - 0.0 - - - - - - -
26/10:00am 13.1 SSW 10 13 - - 0.0 - - - - - - -
26/09:30am 12.8 SSW 7 9 - - 0.0 - - - - - - -
26/09:00am 12.1 SW 5 9 - - 3.0 - - - - - - -
26/08:30am 11.8 SSW 7 9 - - 3.0 - - - - - - -
26/08:00am 11.2 SSW 5 6 - - 3.0 - - - - - - -
26/07:30am 10.5 SSW 5 6 - - 3.0 - - - - - - -
26/07:00am 10.4 SSW 7 11 - - 3.0 - - - - - - -
26/06:30am 10.7 SSW 6 7 - - 3.0 - - - - - - -
26/06:00am 10.7 SSW 6 8 - - 2.8 - - - - - - -
26/05:30am 11.0 SSW 6 7 - - 2.8 - - - - - - -
26/05:00am 11.2 S 7 10 - - 2.8 - - - - - - -
26/04:30am 10.9 SSW 9 11 - - 2.8 - - - - - - -
26/04:00am 10.5 SSW 5 7 - - 2.8 - - - - - - -
26/03:30am 10.6 SW 7 9 - - 2.8 - - - - - - -
26/03:00am 10.3 S 4 7 - - 2.8 Rain - - - - - -
26/02:30am 10.4 S 6 8 - - 2.6 - - - - - - -
26/02:00am 10.7 SSW 9 15 - - 2.6 - - - - - - -
26/01:30am 10.2 SSW 8 12 - - 2.6 - - - - - - -
26/01:00am 8.6 SW 4 5 - - 2.6 - - - - - - -
26/12:30am 9.5 SSW 2 4 - - 2.6 - - - - - - -
26/12:00am 9.9 SSW 5 8 - - 2.4 - - - - - - -
 
Date/Time
CST
Temp

°C
Wind Pressure Rain
since 9am
mm
Weather Cloud Vis
km
Sea
Height
m
Swell
Dir
 
Speed
knots
Gust
knots
hPa Trend Height
m
Period
s
Dir
25/11:30pm 9.5 S 5 6 - - 2.4 - - - - - - -
25/11:00pm 9.6 S 4 5 - - 2.4 - - - - - - -
25/10:30pm 10.1 S 6 10 - - 2.4 - - - - - - -
25/10:00pm 10.0 SSW 8 10 - - 2.4 - - - - - - -
25/09:30pm 10.3 SSW 9 12 - - 2.4 - - - - - - -
25/09:00pm 10.7 S 8 11 - - 2.4 - - - - - - -
25/08:30pm 10.3 S 8 13 - - 2.4 - - - - - - -
25/08:00pm 11.1 SSW 9 11 - - 2.4 - - - - - - -
25/07:30pm 11.6 S 9 14 - - 2.4 - - - - - - -
25/07:00pm 11.0 S 9 14 - - 2.4 - - - - - - -
25/06:30pm 11.1 S 11 16 - - 2.4 - - - - - - -
25/06:00pm 11.7 S 14 19 - - 2.4 - - - - - - -
25/05:30pm 12.1 S 14 19 - - 2.4 - - - - - - -
25/05:00pm 12.4 S 11 15 - - 2.4 - - - - - - -
25/04:30pm 12.5 S 15 21 - - 2.4 - - - - - - -
25/04:00pm 12.6 S 16 23 - - 2.4 - - - - - - -
25/03:30pm 12.3 S 15 20 - - 2.4 - - - - - - -
25/03:00pm 13.0 S 15 21 - - 2.2 Recent precip. - - - - - -
25/02:30pm 12.6 S 15 22 - - 2.2 - - - - - - -
25/02:00pm 12.6 SSW 17 25 - - 1.4 - - - - - - -
25/01:30pm 12.7 S 17 26 - - 1.2 - - - - - - -
25/01:00pm 13.8 SSE 18 24 - - 1.0 - - - - - - -
25/12:35pm 14.0 S 19 31 - - 0.6 - - - - - - -
25/12:30pm 14.5 S 18 25 - - 0.6 - - - - - - -
25/12:00pm 14.1 S 19 27 - - 0.6 Recent precip. - - - - - -
25/11:30am 13.0 S 18 26 - - 0.4 - - - - - - -
25/11:00am 13.2 SSW 13 19 - - 0.0 - - - - - - -
25/10:30am 13.7 S 12 16 - - 0.0 - - - - - - -
25/10:00am 13.0 S 11 17 - - 0.0 - - - - - - -
25/09:30am 13.2 SSW 13 19 - - 0.0 - - - - - - -
25/09:00am 11.8 S 11 19 - - 4.8 - - - - - - -
25/08:30am 11.4 SSW 12 22 - - 4.8 - - - - - - -
25/08:00am 11.1 SSW 7 8 - - 4.8 - - - - - - -
25/07:30am 9.7 SW 5 7 - - 4.8 - - - - - - -
25/07:00am 10.5 S 8 12 - - 4.8 - - - - - - -
25/06:30am 9.5 S 4 7 - - 4.8 - - - - - - -
25/06:00am 9.2 S 4 6 - - 4.8 - - - - - - -
25/05:30am 9.2 S 7 9 - - 4.8 - - - - - - -
25/05:00am 9.5 S 10 14 - - 4.8 - - - - - - -
25/04:30am 9.4 SSE 11 13 - - 4.8 - - - - - - -
25/04:00am 10.3 S 12 15 - - 4.8 - - - - - - -
25/03:30am 9.9 S 12 17 - - 4.8 - - - - - - -
25/03:00am 10.1 S 13 20 - - 4.8 - - - - - - -
25/02:30am 10.3 S 13 18 - - 4.8 - - - - - - -
25/02:00am 10.3 S 16 22 - - 4.8 - - - - - - -
25/01:30am 10.4 S 16 22 - - 4.8 - - - - - - -
25/01:00am 10.2 S 15 21 - - 4.8 - - - - - - -
25/12:30am 10.1 S 18 25 - - 4.8 - - - - - - -
25/12:00am 9.8 S 17 23 - - 4.8 Rain - - - - - -
 
Date/Time
CST
Temp

°C
Wind Pressure Rain
since 9am
mm
Weather Cloud Vis
km
Sea
Height
m
Swell
Dir
 
Speed
knots
Gust
knots
hPa Trend Height
m
Period
s
Dir
24/11:30pm 9.4 SSW 14 20 - - 4.6 - - - - - - -
24/11:00pm 8.6 SSW 11 16 - - 4.4 - - - - - - -
24/10:30pm 7.6 SW 8 11 - - 4.4 - - - - - - -
24/10:00pm 7.6 SSW 9 12 - - 4.4 - - - - - - -
24/09:30pm 7.3 SSW 4 4 - - 4.2 - - - - - - -
24/09:00pm 7.9 SSW 2 2 - - 4.2 Recent precip. - - - - - -
24/08:30pm 8.3 NNW 5 7 - - 4.2 - - - - - - -
24/08:00pm 8.2 NW 4 5 - - 3.6 - - - - - - -
24/07:30pm 8.4 SW 7 12 - - 3.6 - - - - - - -
24/07:00pm 9.4 NNW 11 23 - - 3.2 - - - - - - -
24/06:30pm 8.4 NNW 8 14 - - 2.8 - - - - - - -
24/06:02pm 9.3 NNW 13 28 - - 1.8 - - - - - - -
24/06:00pm 9.4 NNW 11 20 - - 1.4 Rain - - - - - -
24/05:30pm 10.1 NW 10 14 - - 0.8 - - - - - - -
24/05:00pm 10.2 NNW 9 19 - - 0.6 - - - - - - -
24/04:30pm 10.5 NW 13 21 - - 0.6 - - - - - - -
24/04:00pm 11.4 WNW 16 25 - - 0.4 - - - - - - -
24/03:59pm 11.5 WNW 15 25 - - 0.4 - - - - - - -
24/03:30pm 11.3 NW 11 23 - - 0.4 - - - - - - -
24/03:01pm 11.4 WNW 17 27 - - 0.2 - - - - - - -
24/03:00pm 11.9 WNW 16 22 - - 0.2 - - - - - - -
24/02:30pm 13.8 WNW 17 22 - - 0.2 - - - - - - -
24/02:00pm 13.2 WNW 13 17 - - 0.2 - - - - - - -
24/01:30pm 12.8 WNW 17 29 - - 0.0 - - - - - - -
24/01:17pm 14.4 WNW 16 23 - - 0.0 - - - - - - -
24/01:00pm 14.4 W 20 26 - - 0.0 - - - - - - -
24/12:30pm 13.6 W 21 27 - - 0.0 - - - - - - -
24/12:06pm 14.3 W 19 38 - - 0.0 - - - - - - -
24/12:00pm 14.3 WSW 19 26 - - 0.0 - - - - - - -
24/11:30am 12.7 WSW 19 26 - - 0.0 - - - - - - -
24/11:00am 13.9 W 19 26 - - 0.0 - - - - - - -
24/10:39am 12.9 W 18 28 - - 0.0 - - - - - - -
24/10:30am 12.2 WSW 17 24 - - 0.0 - - - - - - -
24/10:00am 12.1 W 14 18 - - 0.0 - - - - - - -
24/09:30am 11.4 W 13 18 - - 0.0 - - - - - - -
24/09:00am 10.7 W 12 17 - - 2.6 Recent precip. - - - - - -
24/08:30am 10.0 WSW 13 17 - - 2.6 - - - - - - -
24/08:03am 10.4 WSW 15 26 - - 2.4 - - - - - - -
24/08:00am 10.5 WSW 15 22 - - 2.4 - - - - - - -
24/07:38am 10.9 WSW 18 28 - - 2.4 - - - - - - -
24/07:30am 11.4 WSW 16 22 - - 2.4 - - - - - - -
24/07:09am 13.5 WNW 12 24 - - 1.0 - - - - - - -
24/07:00am 13.9 NW 11 14 - - 0.6 - - - - - - -
24/06:30am 14.0 NNW 13 18 - - 0.6 - - - - - - -
24/06:00am 13.3 NNW 7 9 - - 0.4 Recent precip. - - - - - -
24/05:30am 13.4 NW 12 16 - - 0.0 - - - - - - -
24/05:00am 14.2 NNW 10 14 - - 0.0 - - - - - - -

Other Formats:

Comma delimited format used in spreadsheet applications
http://www.bom.gov.au/fwo/IDS60701/IDS60701.94807.axf

JavaScript Object Notation format (JSON) in row-major order
http://www.bom.gov.au/fwo/IDS60701/IDS60701.94807.json